createdAt,value
2023-05-13T00:01:53.467Z,4.43
2023-05-13T00:04:19.907Z,4.70
2023-05-13T00:06:46.284Z,4.18
2023-05-13T00:09:12.772Z,4.25
2023-05-13T00:11:39.134Z,4.68
2023-05-13T00:14:06.420Z,4.05
2023-05-13T00:16:32.820Z,3.92
2023-05-13T00:18:59.247Z,4.18
2023-05-13T00:21:25.648Z,4.20
2023-05-13T00:23:51.978Z,4.60
2023-05-13T00:26:18.411Z,4.75
2023-05-13T00:28:47.680Z,4.97
2023-05-13T00:31:14.559Z,4.38
2023-05-13T00:33:40.926Z,4.80
2023-05-13T00:36:09.388Z,4.47
2023-05-13T00:38:36.317Z,4.80
2023-05-13T00:41:03.064Z,4.28
2023-05-13T00:43:29.902Z,5.30
2023-05-13T00:45:56.597Z,5.15
2023-05-13T00:48:24.806Z,4.63
2023-05-13T00:50:51.118Z,5.28
2023-05-13T00:53:17.788Z,5.07
2023-05-13T00:55:45.271Z,4.80
2023-05-13T00:58:11.901Z,5.00
2023-05-13T01:00:46.571Z,5.00
2023-05-13T01:03:16.590Z,4.80
2023-05-13T01:05:43.161Z,4.93
2023-05-13T01:08:12.190Z,5.03
2023-05-13T01:10:44.306Z,5.30
2023-05-13T01:13:12.558Z,5.28
2023-05-13T01:15:40.473Z,5.30
2023-05-13T01:18:09.695Z,4.97
2023-05-13T01:20:38.117Z,5.20
2023-05-13T01:23:06.120Z,5.38
2023-05-13T01:25:32.597Z,5.13
2023-05-13T01:28:00.280Z,5.13
2023-05-13T01:30:27.056Z,5.75
2023-05-13T01:32:53.749Z,5.32
2023-05-13T01:35:21.050Z,5.15
2023-05-13T01:37:48.862Z,5.20
2023-05-13T01:40:31.138Z,5.78
2023-05-13T01:43:00.476Z,5.47
2023-05-13T01:45:30.150Z,6.03
2023-05-13T01:47:57.153Z,5.80
2023-05-13T01:50:25.362Z,5.70
2023-05-13T01:52:51.864Z,5.97
2023-05-13T01:55:18.870Z,6.25
2023-05-13T01:57:46.709Z,5.28
2023-05-13T02:00:13.399Z,5.28
2023-05-13T02:02:42.692Z,5.75
2023-05-13T02:05:09.422Z,5.90
2023-05-13T02:07:36.623Z,6.63
2023-05-13T02:10:03.010Z,6.25
2023-05-13T02:12:31.688Z,6.60
2023-05-13T02:14:58.012Z,6.32
2023-05-13T02:17:24.432Z,6.22
2023-05-13T02:19:52.317Z,6.50
2023-05-13T02:22:19.078Z,6.70
2023-05-13T02:24:45.475Z,6.82
2023-05-13T02:27:12.957Z,7.03
2023-05-13T02:29:39.457Z,6.88
2023-05-13T02:32:06.025Z,6.35
2023-05-13T02:34:32.467Z,7.32
2023-05-13T02:36:58.883Z,6.85
2023-05-13T02:39:25.254Z,6.47
2023-05-13T02:41:53.387Z,6.78
2023-05-13T02:44:19.951Z,6.93
2023-05-13T02:46:46.362Z,7.03
2023-05-13T02:49:13.975Z,7.72
2023-05-13T02:51:40.799Z,7.38
2023-05-13T02:54:07.419Z,7.43
2023-05-13T02:56:33.828Z,7.85
2023-05-13T02:59:00.265Z,7.32
2023-05-13T03:01:27.025Z,7.57
2023-05-13T03:03:53.656Z,7.15
2023-05-13T03:06:20.280Z,8.13
2023-05-13T03:08:46.707Z,6.95
2023-05-13T03:11:13.123Z,7.50
2023-05-13T03:13:39.425Z,7.85
2023-05-13T03:16:05.941Z,8.52
2023-05-13T03:18:32.827Z,8.07
2023-05-13T03:20:59.608Z,7.90
2023-05-13T03:23:26.278Z,8.68
2023-05-13T03:25:55.915Z,8.85
2023-05-13T03:28:22.361Z,8.75
2023-05-13T03:30:48.792Z,9.05
2023-05-13T03:33:18.381Z,8.68
2023-05-13T03:35:45.599Z,8.98
2023-05-13T03:38:11.972Z,9.27
2023-05-13T03:40:43.120Z,8.80
2023-05-13T03:43:09.774Z,9.60
2023-05-13T03:45:38.248Z,9.63
2023-05-13T03:48:08.602Z,8.80
2023-05-13T03:50:34.990Z,9.75
2023-05-13T03:53:01.776Z,10.27
2023-05-13T03:55:28.762Z,9.75
2023-05-13T03:57:55.249Z,9.73
2023-05-13T04:00:22.053Z,9.93
2023-05-13T04:02:48.853Z,9.90
2023-05-13T04:05:15.472Z,10.00
2023-05-13T04:07:41.991Z,10.43
2023-05-13T04:10:08.976Z,10.85
2023-05-13T04:12:35.475Z,10.20
2023-05-13T04:15:01.796Z,10.73
2023-05-13T04:17:28.819Z,10.85
2023-05-13T04:19:55.818Z,11.15
2023-05-13T04:22:22.216Z,11.10
2023-05-13T04:24:51.916Z,10.95
2023-05-13T04:27:18.396Z,11.10
2023-05-13T04:29:45.769Z,10.90
2023-05-13T04:32:16.112Z,11.57
2023-05-13T04:34:43.079Z,11.35
2023-05-13T04:37:09.589Z,12.07
2023-05-13T04:39:36.093Z,10.73
2023-05-13T04:42:02.939Z,11.23
2023-05-13T04:44:31.049Z,11.07
2023-05-13T04:46:58.024Z,10.93
2023-05-13T04:49:24.471Z,11.18
2023-05-13T04:51:51.545Z,11.00
2023-05-13T04:54:18.908Z,10.70
2023-05-13T04:56:45.407Z,10.68
2023-05-13T04:59:11.909Z,10.00
2023-05-13T05:01:40.299Z,10.55
2023-05-13T05:04:06.789Z,9.65
2023-05-13T05:06:35.227Z,10.82
2023-05-13T05:09:01.779Z,9.95
2023-05-13T05:11:29.033Z,10.95
2023-05-13T05:13:56.040Z,10.13
2023-05-13T05:16:23.851Z,10.55
2023-05-13T05:18:50.584Z,10.10
2023-05-13T05:21:19.050Z,9.52
2023-05-13T05:23:45.904Z,10.32
2023-05-13T05:26:12.740Z,10.20
2023-05-13T05:28:42.437Z,10.20
2023-05-13T05:31:09.692Z,9.88
2023-05-13T05:33:36.590Z,9.40
2023-05-13T05:36:03.543Z,8.88
2023-05-13T05:38:29.931Z,10.07
2023-05-13T05:40:58.080Z,9.98
2023-05-13T05:43:24.610Z,9.68
2023-05-13T05:45:52.027Z,10.05
2023-05-13T05:48:19.842Z,9.10
2023-05-13T05:50:47.074Z,9.85
2023-05-13T05:53:17.883Z,9.10
2023-05-13T05:55:45.034Z,10.00
2023-05-13T05:58:14.466Z,10.27
2023-05-13T06:00:41.087Z,10.25
2023-05-13T06:03:07.883Z,9.95
2023-05-13T06:05:35.350Z,9.15
2023-05-13T06:08:01.709Z,10.40
2023-05-13T06:10:29.768Z,10.85
2023-05-13T06:12:56.585Z,9.85
2023-05-13T06:15:23.122Z,8.35
2023-05-13T06:17:49.569Z,10.32
2023-05-13T06:20:16.029Z,10.10
2023-05-13T06:22:42.324Z,9.88
2023-05-13T06:25:08.843Z,9.63
2023-05-13T06:27:36.167Z,9.85
2023-05-13T06:30:03.025Z,9.20
2023-05-13T06:32:29.429Z,8.75
2023-05-13T06:34:56.104Z,9.38
2023-05-13T06:37:23.094Z,7.88
2023-05-13T06:39:49.487Z,8.02
2023-05-13T06:42:18.396Z,7.85
2023-05-13T06:44:52.675Z,7.53
2023-05-13T06:47:25.698Z,7.70
2023-05-13T06:49:52.086Z,7.53
2023-05-13T06:52:18.469Z,7.82
2023-05-13T06:54:44.775Z,7.45
2023-05-13T06:57:12.134Z,6.90
2023-05-13T06:59:38.479Z,6.85
2023-05-13T07:02:04.917Z,6.78
2023-05-13T07:04:31.408Z,6.65
2023-05-13T07:06:57.791Z,6.22
2023-05-13T07:09:24.153Z,6.63
2023-05-13T07:11:50.644Z,6.82
2023-05-13T07:14:17.227Z,7.18
2023-05-13T07:16:43.907Z,6.75
2023-05-13T07:19:10.633Z,6.72
2023-05-13T07:21:37.726Z,6.40
2023-05-13T07:24:05.184Z,6.13
2023-05-13T07:26:32.183Z,6.28
2023-05-13T07:28:59.565Z,6.38
2023-05-13T07:31:25.997Z,6.50
2023-05-13T07:33:52.372Z,6.55
2023-05-13T07:36:18.748Z,5.93
2023-05-13T07:38:45.187Z,6.43
2023-05-13T07:41:11.593Z,6.00
2023-05-13T07:43:40.384Z,6.13
2023-05-13T07:46:06.795Z,5.75
2023-05-13T07:48:33.630Z,6.05
2023-05-13T07:51:00.003Z,6.53
2023-05-13T07:53:26.701Z,6.22
2023-05-13T07:55:53.186Z,6.28
2023-05-13T07:58:20.229Z,5.97
2023-05-13T08:00:46.641Z,6.28
2023-05-13T08:03:13.147Z,5.72
2023-05-13T08:05:39.527Z,6.15
2023-05-13T08:08:05.940Z,5.95
2023-05-13T08:10:32.306Z,6.18
2023-05-13T08:13:00.840Z,5.35
2023-05-13T08:15:27.478Z,5.60
2023-05-13T08:17:54.514Z,5.43
2023-05-13T08:20:22.971Z,5.55
2023-05-13T08:22:49.433Z,5.47
2023-05-13T08:25:16.059Z,5.40
2023-05-13T08:27:42.539Z,6.22
2023-05-13T08:30:09.071Z,6.43
2023-05-13T08:32:35.533Z,5.75
2023-05-13T08:35:01.938Z,5.45
2023-05-13T08:37:28.266Z,5.90
2023-05-13T08:39:56.457Z,6.20
2023-05-13T08:42:22.953Z,6.60
2023-05-13T08:44:49.385Z,5.30
2023-05-13T08:47:21.786Z,5.68
2023-05-13T08:49:48.311Z,5.88
2023-05-13T08:52:14.711Z,6.32
2023-05-13T08:54:43.254Z,6.38
2023-05-13T08:57:09.593Z,6.00
2023-05-13T08:59:35.984Z,5.85
2023-05-13T09:02:04.154Z,5.70
2023-05-13T09:04:30.996Z,6.47
2023-05-13T09:06:57.749Z,6.28
2023-05-13T09:09:24.286Z,5.82
2023-05-13T09:11:50.632Z,5.90
2023-05-13T09:14:19.197Z,5.60
2023-05-13T09:16:47.390Z,6.75
2023-05-13T09:19:13.903Z,7.03
2023-05-13T09:21:40.525Z,6.07
2023-05-13T09:24:09.510Z,5.93
2023-05-13T09:26:39.640Z,5.75
2023-05-13T09:29:15.763Z,5.85
2023-05-13T09:31:42.785Z,5.70
2023-05-13T09:34:09.138Z,5.88
2023-05-13T09:36:35.501Z,5.97
2023-05-13T09:39:03.178Z,6.25
2023-05-13T09:41:32.571Z,5.85
2023-05-13T09:44:01.598Z,6.32
2023-05-13T09:46:28.002Z,6.13
2023-05-13T09:48:57.843Z,6.28
2023-05-13T09:51:29.039Z,6.07
2023-05-13T09:53:55.656Z,6.07
2023-05-13T09:56:23.827Z,6.97
2023-05-13T09:58:53.093Z,6.05
2023-05-13T10:01:20.532Z,6.78
2023-05-13T10:03:47.051Z,6.05
2023-05-13T10:06:15.300Z,5.90
2023-05-13T10:08:42.209Z,4.97
2023-05-13T10:11:10.973Z,6.45
2023-05-13T10:13:38.386Z,6.00
2023-05-13T10:16:04.885Z,6.00
2023-05-13T10:18:31.360Z,6.45
2023-05-13T10:20:58.060Z,6.57
2023-05-13T10:23:24.849Z,5.90
2023-05-13T10:25:53.059Z,7.28
2023-05-13T10:28:20.029Z,6.30
2023-05-13T10:30:46.837Z,6.05
2023-05-13T10:33:13.621Z,6.22
2023-05-13T10:35:43.330Z,6.55
2023-05-13T10:38:16.726Z,6.30
2023-05-13T10:41:09.375Z,5.25
2023-05-13T10:43:36.510Z,5.45
2023-05-13T10:46:05.013Z,5.75
2023-05-13T10:48:41.704Z,5.18
2023-05-13T10:51:08.481Z,4.95
2023-05-13T10:53:46.532Z,5.82
2023-05-13T10:56:13.567Z,4.90
2023-05-13T10:58:39.993Z,4.95
2023-05-13T11:01:14.278Z,5.20
2023-05-13T11:03:41.086Z,5.25
2023-05-13T11:06:07.553Z,5.15
2023-05-13T11:08:38.095Z,5.00
2023-05-13T11:11:16.793Z,4.72
2023-05-13T11:13:43.242Z,4.97
2023-05-13T11:16:12.704Z,4.50
2023-05-13T11:18:39.178Z,4.32
2023-05-13T11:21:06.572Z,5.18
2023-05-13T11:23:51.787Z,4.95
2023-05-13T11:26:18.966Z,4.35
2023-05-13T11:28:55.578Z,4.32
2023-05-13T11:31:23.041Z,4.38
2023-05-13T11:34:09.322Z,4.30
2023-05-13T11:36:46.009Z,4.70
2023-05-13T11:39:13.960Z,4.22
2023-05-13T11:41:41.496Z,3.95
2023-05-13T11:44:08.084Z,4.75
2023-05-13T11:46:34.961Z,4.20
2023-05-13T11:49:01.354Z,3.70
2023-05-13T11:51:28.586Z,3.47
2023-05-13T11:54:01.872Z,4.15
2023-05-13T11:56:28.678Z,3.90
2023-05-13T11:58:55.564Z,3.70
2023-05-13T12:01:21.969Z,3.35
2023-05-13T12:03:48.511Z,3.05
2023-05-13T12:06:15.810Z,3.40
2023-05-13T12:08:46.159Z,3.40
2023-05-13T12:11:13.211Z,3.33
2023-05-13T12:13:41.052Z,3.88
2023-05-13T12:16:07.719Z,3.03
2023-05-13T12:18:34.521Z,3.15
2023-05-13T12:21:13.007Z,3.38
2023-05-13T12:23:40.303Z,2.95
2023-05-13T12:26:07.778Z,3.22
2023-05-13T12:28:34.118Z,3.00
2023-05-13T12:31:01.513Z,2.47
2023-05-13T12:33:28.942Z,2.50
2023-05-13T12:36:15.103Z,2.85
2023-05-13T12:38:54.348Z,2.85
2023-05-13T12:41:21.550Z,2.53
2023-05-13T12:43:47.909Z,2.45
2023-05-13T12:46:14.338Z,2.95
2023-05-13T12:48:40.672Z,2.60
2023-05-13T12:51:07.148Z,2.55
2023-05-13T12:53:33.519Z,2.95
2023-05-13T12:55:59.893Z,2.85
2023-05-13T12:58:26.258Z,2.85
2023-05-13T13:00:52.677Z,2.97
2023-05-13T13:03:21.021Z,3.00
2023-05-13T13:05:48.873Z,2.60
2023-05-13T13:08:15.265Z,3.40
2023-05-13T13:10:42.786Z,4.10
2023-05-13T13:13:10.588Z,3.17
2023-05-13T13:15:37.485Z,2.92
2023-05-13T13:18:04.016Z,3.00
2023-05-13T13:20:30.454Z,3.55
2023-05-13T13:22:57.236Z,3.20
2023-05-13T13:25:24.000Z,2.72
2023-05-13T13:27:50.736Z,2.88
2023-05-13T13:30:18.730Z,3.15
2023-05-13T13:32:45.066Z,2.83
2023-05-13T13:35:11.484Z,2.42
2023-05-13T13:37:38.121Z,2.50
2023-05-13T13:40:04.888Z,2.70
2023-05-13T13:42:43.494Z,3.00
2023-05-13T13:45:11.611Z,3.25
2023-05-13T13:47:38.349Z,2.33
2023-05-13T13:50:04.999Z,2.83
2023-05-13T13:52:31.435Z,2.95
2023-05-13T13:54:57.874Z,2.53
2023-05-13T13:57:24.288Z,2.25
2023-05-13T13:59:50.660Z,2.47
2023-05-13T14:02:17.256Z,2.60
2023-05-13T14:04:43.639Z,2.67
2023-05-13T14:07:09.961Z,2.65
2023-05-13T14:09:36.277Z,2.60
2023-05-13T14:12:02.612Z,2.30
2023-05-13T14:14:28.966Z,2.63
2023-05-13T14:16:55.341Z,2.95
2023-05-13T14:19:21.680Z,2.25
2023-05-13T14:21:48.040Z,2.42
2023-05-13T14:24:14.378Z,2.65
2023-05-13T14:26:40.703Z,2.42
2023-05-13T14:29:07.015Z,2.38
2023-05-13T14:31:33.356Z,2.38
2023-05-13T14:33:59.767Z,3.20
2023-05-13T14:36:26.695Z,2.45
2023-05-13T14:38:53.882Z,1.88
2023-05-13T14:41:20.810Z,2.50
2023-05-13T14:43:47.359Z,2.70
2023-05-13T14:46:13.780Z,2.92
2023-05-13T14:48:40.246Z,2.97
2023-05-13T14:51:07.049Z,2.42
2023-05-13T14:53:33.524Z,2.33
2023-05-13T14:55:59.985Z,2.67
2023-05-13T14:58:26.389Z,2.92
2023-05-13T15:00:53.440Z,3.15
2023-05-13T15:03:19.925Z,2.40
2023-05-13T15:05:47.042Z,2.08
2023-05-13T15:08:15.998Z,2.35
2023-05-13T15:10:42.396Z,2.33
2023-05-13T15:13:08.831Z,2.38
2023-05-13T15:15:35.239Z,2.45
2023-05-13T15:18:01.638Z,2.50
2023-05-13T15:20:28.591Z,2.30
2023-05-13T15:22:55.235Z,2.10
2023-05-13T15:25:21.554Z,2.20
2023-05-13T15:27:49.817Z,2.10
2023-05-13T15:30:16.193Z,2.58
2023-05-13T15:32:42.522Z,2.85
2023-05-13T15:35:08.980Z,2.70
2023-05-13T15:37:35.267Z,2.40
2023-05-13T15:40:02.131Z,2.85
2023-05-13T15:42:28.566Z,3.38
2023-05-13T15:44:54.894Z,2.47
2023-05-13T15:47:21.400Z,3.03
2023-05-13T15:49:49.349Z,4.70
2023-05-13T15:52:15.825Z,4.28
2023-05-13T15:54:42.136Z,4.30
2023-05-13T15:57:09.250Z,4.55
2023-05-13T15:59:35.848Z,4.20
2023-05-13T16:02:02.404Z,4.45
2023-05-13T16:04:28.893Z,4.93
2023-05-13T16:06:55.311Z,4.45
2023-05-13T16:09:21.694Z,3.75
2023-05-13T16:11:47.990Z,4.57
2023-05-13T16:14:14.346Z,3.60
2023-05-13T16:16:40.741Z,4.00
2023-05-13T16:19:08.396Z,4.57
2023-05-13T16:21:34.995Z,4.95
2023-05-13T16:24:01.412Z,4.85
2023-05-13T16:26:27.863Z,4.57
2023-05-13T16:28:54.271Z,4.85
2023-05-13T16:31:20.624Z,5.03
2023-05-13T16:33:46.989Z,4.13
2023-05-13T16:36:13.367Z,4.30
2023-05-13T16:38:41.245Z,4.28
2023-05-13T16:41:07.856Z,4.88
2023-05-13T16:43:34.206Z,4.43
2023-05-13T16:46:00.538Z,5.65
2023-05-13T16:48:26.927Z,5.18
2023-05-13T16:50:53.349Z,3.85
2023-05-13T16:53:22.219Z,3.97
2023-05-13T16:55:51.599Z,4.10
2023-05-13T16:58:18.001Z,4.45
2023-05-13T17:00:44.455Z,4.22
2023-05-13T17:03:13.187Z,4.10
2023-05-13T17:05:39.946Z,3.78
2023-05-13T17:08:06.273Z,3.30
2023-05-13T17:10:32.638Z,3.55
2023-05-13T17:12:58.940Z,4.75
2023-05-13T17:15:25.330Z,4.70
2023-05-13T17:17:51.732Z,5.07
2023-05-13T17:20:19.782Z,4.53
2023-05-13T17:22:47.344Z,4.53
2023-05-13T17:25:14.161Z,4.50
2023-05-13T17:27:40.698Z,4.50
2023-05-13T17:30:07.456Z,4.63
2023-05-13T17:32:33.907Z,4.45
2023-05-13T17:35:00.779Z,4.88
2023-05-13T17:37:27.141Z,4.50
2023-05-13T17:39:54.711Z,4.43
2023-05-13T17:42:21.687Z,4.97
2023-05-13T17:44:48.068Z,4.15
2023-05-13T17:47:14.693Z,4.13
2023-05-13T17:49:41.056Z,4.13
2023-05-13T17:52:07.483Z,4.40
2023-05-13T17:54:33.838Z,4.60
2023-05-13T17:57:00.196Z,4.18
2023-05-13T17:59:26.570Z,4.05
2023-05-13T18:01:52.981Z,4.30
2023-05-13T18:04:19.427Z,4.40
2023-05-13T18:06:45.816Z,3.95
2023-05-13T18:09:12.193Z,4.18
2023-05-13T18:11:38.612Z,4.28
2023-05-13T18:14:05.031Z,4.80
2023-05-13T18:16:31.491Z,4.35
2023-05-13T18:18:58.007Z,4.55
2023-05-13T18:21:26.426Z,4.53
2023-05-13T18:23:52.789Z,4.50
2023-05-13T18:26:19.201Z,4.30
2023-05-13T18:28:45.720Z,3.78
2023-05-13T18:31:12.410Z,5.10
2023-05-13T18:33:38.807Z,3.58
2023-05-13T18:36:05.383Z,4.65
2023-05-13T18:38:31.780Z,3.72
2023-05-13T18:41:02.998Z,4.50
2023-05-13T18:43:29.899Z,4.50
2023-05-13T18:45:58.066Z,4.47
2023-05-13T18:48:25.061Z,4.45
2023-05-13T18:50:53.157Z,4.07
2023-05-13T18:53:19.733Z,5.07
2023-05-13T18:55:47.682Z,4.53
2023-05-13T18:58:14.098Z,4.78
2023-05-13T19:00:40.792Z,4.10
2023-05-13T19:03:08.301Z,4.40
2023-05-13T19:05:38.059Z,4.63
2023-05-13T19:08:05.348Z,4.10
2023-05-13T19:10:34.677Z,4.07
2023-05-13T19:13:06.725Z,3.63
2023-05-13T19:15:33.326Z,3.75
2023-05-13T19:18:00.122Z,3.95
2023-05-13T19:20:26.936Z,4.13
2023-05-13T19:22:53.402Z,3.92
2023-05-13T19:25:19.832Z,4.00
2023-05-13T19:27:46.907Z,4.70
2023-05-13T19:30:13.294Z,4.50
2023-05-13T19:32:39.817Z,4.38
2023-05-13T19:35:07.106Z,4.70
2023-05-13T19:37:33.452Z,4.43
2023-05-13T19:39:59.776Z,4.25
2023-05-13T19:42:26.133Z,4.57
2023-05-13T19:44:52.518Z,4.68
2023-05-13T19:47:20.063Z,4.97
2023-05-13T19:49:46.717Z,4.72
2023-05-13T19:52:13.012Z,5.35
2023-05-13T19:54:39.387Z,4.65
2023-05-13T19:57:05.958Z,4.95
2023-05-13T19:59:32.354Z,5.55
2023-05-13T20:01:58.789Z,5.90
2023-05-13T20:04:25.250Z,5.95
2023-05-13T20:06:51.593Z,5.03
2023-05-13T20:09:17.976Z,5.53
2023-05-13T20:11:44.486Z,5.63
2023-05-13T20:14:12.908Z,5.13
2023-05-13T20:16:39.367Z,5.55
2023-05-13T20:19:05.879Z,5.68
2023-05-13T20:21:32.220Z,6.80
2023-05-13T20:23:59.078Z,6.15
2023-05-13T20:26:26.013Z,5.88
2023-05-13T20:28:52.728Z,6.68
2023-05-13T20:31:19.209Z,6.25
2023-05-13T20:33:47.862Z,6.55
2023-05-13T20:36:14.292Z,7.45
2023-05-13T20:38:41.280Z,7.22
2023-05-13T20:41:07.777Z,6.78
2023-05-13T20:43:34.401Z,7.18
2023-05-13T20:46:01.711Z,7.88
2023-05-13T20:48:31.734Z,7.45
2023-05-13T20:50:59.098Z,7.95
2023-05-13T20:53:26.098Z,7.45
2023-05-13T20:55:52.822Z,8.57
2023-05-13T20:58:19.177Z,8.38
2023-05-13T21:00:46.705Z,7.65
2023-05-13T21:03:13.090Z,8.93
2023-05-13T21:05:39.415Z,8.30
2023-05-13T21:08:05.732Z,8.80
2023-05-13T21:10:32.174Z,8.32
2023-05-13T21:12:58.631Z,8.60
2023-05-13T21:15:25.315Z,8.68
2023-05-13T21:17:52.015Z,8.73
2023-05-13T21:20:18.443Z,9.63
2023-05-13T21:22:44.762Z,8.85
2023-05-13T21:25:11.094Z,9.02
2023-05-13T21:27:37.445Z,8.90
2023-05-13T21:30:04.566Z,8.90
2023-05-13T21:32:31.060Z,9.48
2023-05-13T21:34:57.422Z,8.55
2023-05-13T21:37:25.223Z,9.48
2023-05-13T21:39:51.625Z,9.10
2023-05-13T21:42:18.005Z,9.48
2023-05-13T21:44:44.379Z,9.57
2023-05-13T21:47:10.735Z,9.43
2023-05-13T21:49:37.136Z,9.77
2023-05-13T21:52:03.652Z,10.20
2023-05-13T21:54:29.972Z,9.60
2023-05-13T21:56:56.407Z,10.40
2023-05-13T21:59:22.787Z,10.13
2023-05-13T22:01:49.548Z,10.07
2023-05-13T22:04:16.024Z,10.30
2023-05-13T22:06:42.390Z,9.95
2023-05-13T22:09:08.713Z,10.00
2023-05-13T22:11:35.270Z,10.48
2023-05-13T22:14:01.714Z,10.30
2023-05-13T22:16:28.451Z,10.70
2023-05-13T22:18:58.574Z,10.40
2023-05-13T22:21:25.297Z,10.23
2023-05-13T22:23:52.162Z,9.77
2023-05-13T22:26:18.489Z,10.30
2023-05-13T22:28:45.959Z,10.75
2023-05-13T22:31:12.299Z,10.10
2023-05-13T22:33:38.715Z,9.73
2023-05-13T22:36:05.291Z,11.02
2023-05-13T22:38:32.081Z,10.55
2023-05-13T22:40:58.376Z,11.07
2023-05-13T22:43:24.676Z,11.18
2023-05-13T22:45:51.123Z,10.77
2023-05-13T22:48:17.498Z,11.20
2023-05-13T22:50:43.827Z,10.93
2023-05-13T22:53:10.291Z,10.90
2023-05-13T22:55:36.704Z,11.23
2023-05-13T22:58:03.160Z,11.13
2023-05-13T23:00:29.574Z,11.80
2023-05-13T23:02:55.969Z,12.43
2023-05-13T23:05:22.376Z,11.65
2023-05-13T23:07:49.214Z,11.82
2023-05-13T23:10:15.985Z,11.73
2023-05-13T23:12:42.324Z,12.80
2023-05-13T23:15:10.921Z,12.65
2023-05-13T23:17:37.334Z,13.23
2023-05-13T23:20:03.846Z,13.40
2023-05-13T23:22:30.240Z,12.65
2023-05-13T23:24:56.575Z,13.43
2023-05-13T23:27:22.965Z,14.55
2023-05-13T23:29:49.306Z,14.38
2023-05-13T23:32:15.930Z,13.55
2023-05-13T23:34:42.336Z,13.90
2023-05-13T23:37:08.663Z,13.20
2023-05-13T23:39:34.986Z,13.88
2023-05-13T23:42:01.313Z,11.40
2023-05-13T23:44:27.733Z,14.38
2023-05-13T23:46:54.111Z,14.77
2023-05-13T23:49:20.480Z,15.35
2023-05-13T23:51:46.820Z,14.45
2023-05-13T23:54:13.200Z,13.75
2023-05-13T23:56:39.528Z,13.57
2023-05-13T23:59:05.810Z,14.05
